WMKN/TGG METAR and TAF weather

Enter ICAO airport designator
Station Type Date Time Source
WMKN METAR 2022/12/04 05:00 UTC NOAA

WMKN 040500Z VRB04KT 9999 FEW017CB SCT018 28/25 Q1008


Station Type Date Time Source
WMKN Decoded METAR 2022/12/04 05:00 UTC NOAA

Station name not available
Dec 04, 2022 - 12:00 AM EST / 2022.12.04 0500 UTC
Wind: Variable at 5 MPH (4 KT):0
Visibility: greater than 7 mile(s):0
Sky conditions: partly cloudy
Weather: Cumulonimbus clouds observed
Temperature: 82 F (28 C)
Dew Point: 77 F (25 C)
Relative Humidity: 83%
Pressure (altimeter): 29.77 in. Hg (1008 hPa)
ob: WMKN 040500Z VRB04KT 9999 FEW017CB SCT018 28/25 Q1008
cycle: 5

Station Type Date Time Source
WMKN TAF 2022/12/04 06:00 UTC NOAA

TAF WMKN 040500Z 0406/0506 03005KT 9999 FEW018

Example: see airport list